Time;durP1;ratioP1;P1;durP2;ratioP2;P2;SDS_P1;SDS_P2;PMS_P1;PMS_P2;Temp;Humidity;BMP_temperature;BMP_pressure;BME280_temperature;BME280_humidity;BME280_pressure;Samples;Min_cycle;Max_cycle;Signal;HPM_P1;HPM_P2
2021/11/07 00:02:40;;;;;;;17.50;15.70;;;;;;;6.44;62.84;98650.75;8349362;28;20421;-68
2021/11/07 00:06:50;;;;;;;25.30;15.60;;;;;;;6.65;62.06;98661.56;8341308;28;20232;-68
2021/11/07 00:10:57;;;;;;;29.33;17.33;;;;;;;6.35;62.74;98656.03;8319780;28;20237;-68
2021/11/07 00:15:00;;;;;;;42.83;16.63;;;;;;;5.84;63.68;98659.34;8318788;28;20252;-67
2021/11/07 00:19:10;;;;;;;37.33;16.63;;;;;;;5.70;64.28;98663.84;8318796;28;20235;-67
2021/11/07 00:23:22;;;;;;;20.63;16.03;;;;;;;6.34;63.27;98656.94;8318633;28;20236;-67
2021/11/07 00:27:29;;;;;;;22.83;16.20;;;;;;;6.20;63.19;98638.28;8318341;28;20236;-68
2021/11/07 00:31:42;;;;;;;16.77;15.20;;;;;;;6.51;62.71;98627.47;8317943;28;20224;-67
2021/11/07 00:40:12;;;;;;;17.00;15.50;;;;;;;6.36;62.18;98613.13;8318069;28;20228;-67
2021/11/07 00:44:20;;;;;;;17.07;15.50;;;;;;;6.61;62.17;98629.03;8331543;28;20271;-68
2021/11/07 00:48:26;;;;;;;15.97;14.47;;;;;;;6.58;62.38;98647.91;8350711;28;20239;-67
2021/11/07 00:52:33;;;;;;;17.37;15.77;;;;;;;6.77;61.57;98663.88;8350267;28;20533;-67
2021/11/07 00:56:40;;;;;;;16.67;15.17;;;;;;;6.77;61.45;98668.19;8350313;28;20243;-67
2021/11/07 01:00:51;;;;;;;16.57;15.07;;;;;;;6.94;60.86;98647.28;8350208;28;20422;-68
2021/11/07 01:04:54;;;;;;;16.00;14.50;;;;;;;6.66;61.31;98624.63;8350069;28;20236;-67
2021/11/07 01:08:58;;;;;;;15.90;14.43;;;;;;;6.13;62.78;98598.09;8350204;28;20228;-68
2021/11/07 01:13:01;;;;;;;17.13;15.53;;;;;;;6.06;63.41;98603.34;8317343;28;20237;-67
2021/11/07 01:17:06;;;;;;;14.83;13.53;;;;;;;6.84;60.94;98626.88;8317056;28;20229;-68
2021/11/07 01:21:12;;;;;;;14.43;13.03;;;;;;;6.75;61.01;98606.44;8317149;28;20240;-67
2021/11/07 01:25:15;;;;;;;14.73;13.40;;;;;;;7.05;59.68;98617.03;8316697;28;20233;-67
2021/11/07 01:29:20;;;;;;;14.17;12.87;;;;;;;6.84;59.87;98600.28;8317217;28;20400;-67
2021/11/07 01:33:26;;;;;;;14.23;12.87;;;;;;;6.67;60.52;98615.19;8316624;28;20252;-68
2021/11/07 01:37:36;;;;;;;15.17;13.77;;;;;;;6.36;60.96;98596.00;8315413;28;20479;-67
2021/11/07 01:41:45;;;;;;;14.67;13.37;;;;;;;6.54;59.73;98566.50;8316337;28;20248;-67
2021/11/07 01:45:52;;;;;;;14.70;13.40;;;;;;;6.55;60.32;98569.91;8344201;28;20511;-68
2021/11/07 01:49:56;;;;;;;14.70;13.40;;;;;;;6.18;61.46;98575.72;8348903;28;20239;-68
2021/11/07 01:54:08;;;;;;;14.53;13.23;;;;;;;6.39;61.28;98557.34;8348531;28;20538;-67
2021/11/07 01:58:11;;;;;;;16.93;15.37;;;;;;;5.48;63.35;98509.97;8348946;28;20250;-68
2021/11/07 02:02:14;;;;;;;15.17;13.67;;;;;;;5.75;63.05;98491.56;8348813;28;20543;-67
2021/11/07 02:06:19;;;;;;;15.10;13.70;;;;;;;6.29;61.65;98512.09;8348439;28;20428;-68
2021/11/07 02:10:22;;;;;;;16.00;14.47;;;;;;;6.35;60.61;98527.41;8348250;28;20235;-68
2021/11/07 02:14:25;;;;;;;15.00;13.60;;;;;;;6.82;59.78;98525.66;8347993;28;20243;-67
2021/11/07 02:18:29;;;;;;;15.53;13.93;;;;;;;6.63;59.61;98525.16;8347962;28;20231;-68
2021/11/07 02:22:33;;;;;;;14.90;13.53;;;;;;;6.70;59.71;98507.88;8348164;28;20228;-68
2021/11/07 02:26:36;;;;;;;15.17;13.60;;;;;;;6.63;60.41;98524.31;8347869;28;20243;-67
2021/11/07 02:30:40;;;;;;;15.17;13.63;;;;;;;6.68;60.19;98506.19;8348344;28;20244;-67
2021/11/07 02:34:43;;;;;;;16.87;15.27;;;;;;;6.59;60.44;98500.38;8348136;28;20243;-67
2021/11/07 02:38:49;;;;;;;16.63;15.03;;;;;;;6.55;60.51;98492.72;8347869;28;20247;-68
2021/11/07 02:42:52;;;;;;;16.73;15.13;;;;;;;6.62;60.59;98479.69;8347892;28;20239;-67
2021/11/07 02:46:56;;;;;;;15.80;14.30;;;;;;;6.97;59.56;98490.16;8347905;28;20231;-67
2021/11/07 02:50:58;;;;;;;15.63;14.13;;;;;;;7.05;59.28;98512.28;8354283;28;20232;-68
2021/11/07 02:55:06;;;;;;;15.27;13.87;;;;;;;6.96;59.25;98504.75;8354254;28;20434;-67
2021/11/07 02:59:17;;;;;;;15.87;14.37;;;;;;;7.00;59.45;98498.66;8332481;28;20224;-68
2021/11/07 03:03:20;;;;;;;15.83;14.33;;;;;;;7.03;59.07;98503.75;8321733;28;20235;-67
2021/11/07 03:07:24;;;;;;;14.67;13.30;;;;;;;7.06;58.65;98518.28;8321018;28;20237;-67
2021/11/07 03:11:28;;;;;;;14.80;13.50;;;;;;;7.22;58.49;98511.94;8339315;28;20224;-67
2021/11/07 03:15:32;;;;;;;16.60;15.00;;;;;;;6.74;59.66;98512.09;8348525;28;20292;-67
2021/11/07 03:19:36;;;;;;;14.00;12.70;;;;;;;7.12;58.75;98525.03;8320623;28;20232;-67
2021/11/07 03:23:39;;;;;;;15.73;14.13;;;;;;;7.16;58.52;98519.78;8320770;28;20571;-68
2021/11/07 03:27:45;;;;;;;15.67;14.23;;;;;;;7.13;58.08;98512.13;8320510;28;20236;-67
2021/11/07 03:31:51;;;;;;;15.73;14.13;;;;;;;7.09;58.70;98510.50;8320389;28;20229;-67
2021/11/07 03:35:55;;;;;;;16.20;14.70;;;;;;;7.17;58.37;98511.16;8320585;28;20244;-68
2021/11/07 03:40:00;;;;;;;15.43;13.83;;;;;;;6.94;58.96;98503.94;8320156;28;20229;-68
2021/11/07 03:44:05;;;;;;;15.40;13.87;;;;;;;6.95;58.63;98491.91;8319960;28;20225;-67
2021/11/07 03:48:08;;;;;;;15.90;14.33;;;;;;;6.91;58.92;98480.84;8320157;28;20529;-68
2021/11/07 03:52:12;;;;;;;14.63;13.33;;;;;;;6.99;58.66;98463.50;8320145;28;20542;-68
2021/11/07 03:56:14;;;;;;;16.27;14.77;;;;;;;6.96;58.60;98455.81;8319703;28;20536;-67
2021/11/07 04:00:21;;;;;;;16.23;14.73;;;;;;;6.94;58.81;98443.88;8319045;28;20239;-68
2021/11/07 04:04:24;;;;;;;16.93;15.33;;;;;;;6.98;58.40;98443.75;8319543;28;20248;-68
2021/11/07 04:08:27;;;;;;;15.67;14.17;;;;;;;6.84;58.76;98441.50;8311075;28;20247;-67
2021/11/07 04:12:30;;;;;;;15.33;13.90;;;;;;;6.97;58.30;98436.94;8346841;28;20242;-68
2021/11/07 04:16:35;;;;;;;16.07;14.47;;;;;;;6.91;58.47;98431.06;8351680;28;20243;-68
2021/11/07 04:20:38;;;;;;;16.30;14.70;;;;;;;6.90;58.50;98421.66;8352181;28;20236;-67
2021/11/07 04:24:41;;;;;;;18.30;16.47;;;;;;;6.82;58.49;98416.69;8351704;28;20431;-67
2021/11/07 04:28:45;;;;;;;18.03;16.20;;;;;;;6.74;59.22;98400.53;8351543;28;20232;-68
2021/11/07 04:32:49;;;;;;;19.43;17.53;;;;;;;6.50;59.78;98396.78;8350833;28;20228;-67
2021/11/07 04:36:53;;;;;;;17.90;16.20;;;;;;;6.52;60.08;98382.16;8351334;28;20243;-67
2021/11/07 04:40:56;;;;;;;19.03;17.03;;;;;;;6.54;59.61;98383.81;8351191;28;20234;-67
2021/11/07 04:44:59;;;;;;;17.57;15.87;;;;;;;6.62;58.90;98389.63;8350634;28;20391;-67
2021/11/07 04:49:04;;;;;;;17.43;15.70;;;;;;;6.83;58.60;98382.31;8350804;28;20239;-68
2021/11/07 04:53:09;;;;;;;17.63;15.87;;;;;;;6.87;58.71;98380.53;8350549;28;20239;-68
2021/11/07 04:57:12;;;;;;;18.77;16.20;;;;;;;6.78;58.42;98374.72;8350397;28;20243;-67
2021/11/07 05:01:17;;;;;;;18.60;16.60;;;;;;;6.80;58.58;98352.34;8350453;28;20235;-67
2021/11/07 05:05:22;;;;;;;17.80;16.03;;;;;;;6.71;58.82;98339.69;8350024;28;20239;-67
2021/11/07 05:09:24;;;;;;;18.83;16.87;;;;;;;6.67;59.23;98338.06;8350136;28;20228;-67
2021/11/07 05:13:27;;;;;;;20.53;16.63;;;;;;;6.62;59.35;98345.88;8348802;28;20224;-67
2021/11/07 05:17:33;;;;;;;19.73;16.73;;;;;;;6.82;58.87;98345.44;8349918;28;20231;-67
2021/11/07 05:21:39;;;;;;;17.77;15.87;;;;;;;6.91;58.55;98352.13;8349769;28;20227;-67
2021/11/07 05:25:42;;;;;;;17.63;15.90;;;;;;;6.83;59.12;98360.00;8349599;28;20240;-67
2021/11/07 05:29:45;;;;;;;16.83;15.20;;;;;;;6.94;58.63;98366.63;8349517;28;20246;-67
2021/11/07 05:33:48;;;;;;;17.40;15.70;;;;;;;7.07;58.23;98359.47;8349297;28;20228;-68
2021/11/07 05:37:53;;;;;;;18.43;16.57;;;;;;;7.11;58.29;98355.94;8349314;28;20239;-68
2021/11/07 05:41:56;;;;;;;17.40;15.70;;;;;;;7.11;58.07;98354.19;8349320;28;20239;-67
2021/11/07 05:45:59;;;;;;;17.07;15.37;;;;;;;7.08;57.97;98333.66;8348963;28;20255;-67
2021/11/07 05:50:01;;;;;;;17.00;15.30;;;;;;;7.07;57.81;98313.94;8348817;28;20228;-67
2021/11/07 05:54:06;;;;;;;18.73;16.80;;;;;;;6.99;58.46;98308.16;8348827;28;20425;-67
2021/11/07 05:58:12;;;;;;;18.10;16.17;;;;;;;7.03;58.15;98312.34;8349246;28;20231;-67
2021/11/07 06:02:16;;;;;;;17.90;15.70;;;;;;;7.13;58.09;98310.38;8348624;28;20239;-67
2021/11/07 06:06:20;;;;;;;18.37;15.83;;;;;;;7.09;57.66;98303.63;8348202;28;20247;-67
2021/11/07 06:10:25;;;;;;;17.37;15.57;;;;;;;7.14;57.90;98288.88;8348032;28;20531;-67
2021/11/07 06:14:28;;;;;;;17.80;15.90;;;;;;;6.99;58.08;98288.38;8347967;28;20223;-67
2021/11/07 06:18:31;;;;;;;18.27;16.20;;;;;;;7.05;58.15;98280.50;8348320;28;20274;-67
2021/11/07 06:22:34;;;;;;;18.83;16.93;;;;;;;7.12;58.09;98288.94;8347742;28;20224;-68
2021/11/07 06:26:40;;;;;;;17.73;15.60;;;;;;;7.08;58.12;98289.88;8347786;28;20240;-68
2021/11/07 06:30:43;;;;;;;18.27;16.40;;;;;;;7.05;58.14;98295.13;8348085;28;20232;-67
2021/11/07 06:34:47;;;;;;;17.37;15.67;;;;;;;7.20;57.91;98293.91;8347823;28;20239;-67
2021/11/07 06:38:50;;;;;;;17.93;16.13;;;;;;;7.25;57.92;98289.44;8347601;28;20228;-67
2021/11/07 06:42:55;;;;;;;17.60;15.80;;;;;;;7.04;58.93;98288.25;8347927;28;20228;-67
2021/11/07 06:46:58;;;;;;;16.47;14.77;;;;;;;7.23;58.55;98289.50;8347343;28;20255;-67
2021/11/07 06:51:01;;;;;;;18.00;16.10;;;;;;;7.41;58.35;98287.34;8347323;28;20238;-67
2021/11/07 06:55:06;;;;;;;17.33;15.57;;;;;;;7.52;58.00;98302.50;8347333;28;20251;-67
2021/11/07 06:59:11;;;;;;;17.00;15.20;;;;;;;7.53;58.14;98294.72;8347691;28;20224;-67
2021/11/07 07:03:16;;;;;;;16.97;15.23;;;;;;;7.48;58.91;98300.88;8347642;28;20418;-67
2021/11/07 07:07:19;;;;;;;16.77;15.00;;;;;;;7.46;58.96;98282.88;8347501;28;20239;-67
2021/11/07 07:11:29;;;;;;;16.73;14.97;;;;;;;7.51;58.79;98275.88;8344375;28;20228;-68
2021/11/07 07:15:37;;;;;;;15.37;13.63;;;;;;;7.50;59.04;98268.19;8333947;28;20225;-68
2021/11/07 07:24:24;;;;;;;16.67;14.93;;;;;;;7.32;59.84;98254.09;8344683;28;20228;-68
2021/11/07 07:28:47;;;;;;;17.70;14.83;;;;;;;7.42;60.05;98255.50;8339780;28;20247;-68
2021/11/07 07:33:00;;;;;;;16.87;14.97;;;;;;;7.44;59.82;98248.59;8344588;28;20231;-68
2021/11/07 07:37:04;;;;;;;16.77;14.23;;;;;;;7.76;59.49;98254.59;8350102;28;20334;-67
2021/11/07 07:41:07;;;;;;;16.17;14.47;;;;;;;8.00;58.86;98243.56;8353237;28;20425;-67
2021/11/07 07:45:11;;;;;;;16.50;14.80;;;;;;;8.12;58.86;98236.34;8352738;28;20236;-67
2021/11/07 07:49:18;;;;;;;17.13;15.23;;;;;;;8.27;58.58;98233.31;8352474;28;20235;-67
2021/11/07 07:53:23;;;;;;;16.13;14.40;;;;;;;8.20;58.66;98242.13;8352414;28;20424;-68
2021/11/07 07:57:26;;;;;;;19.77;16.23;;;;;;;8.09;59.47;98234.72;8349048;28;20228;-67
2021/11/07 08:01:29;;;;;;;17.00;15.20;;;;;;;8.15;59.33;98237.09;8349871;28;20235;-67
2021/11/07 08:05:35;;;;;;;16.50;14.60;;;;;;;7.94;59.71;98230.00;8351650;28;20247;-67
2021/11/07 08:09:38;;;;;;;17.13;15.43;;;;;;;8.11;59.54;98229.50;8349122;28;20441;-67
2021/11/07 08:13:41;;;;;;;18.30;16.40;;;;;;;8.21;59.75;98231.75;8345593;28;20231;-67
2021/11/07 08:17:44;;;;;;;15.37;13.87;;;;;;;8.32;59.50;98231.44;8343970;28;20236;-68
2021/11/07 08:21:48;;;;;;;15.63;13.93;;;;;;;8.36;59.45;98222.69;8351694;28;20235;-68
2021/11/07 08:25:51;;;;;;;15.33;13.47;;;;;;;8.19;60.88;98210.31;8347720;28;20228;-68
2021/11/07 08:29:56;;;;;;;14.00;12.50;;;;;;;8.22;59.98;98206.78;8339898;28;20425;-67
2021/11/07 08:34:01;;;;;;;14.60;11.47;;;;;;;8.40;59.75;98208.81;8350883;28;20231;-67
2021/11/07 08:38:09;;;;;;;13.87;11.97;;;;;;;8.48;59.48;98202.59;8351275;28;20239;-67
2021/11/07 08:42:34;;;;;;;11.23;9.80;;;;;;;8.52;59.39;98199.84;8299045;28;20239;-68
2021/11/07 09:04:20;;;;;;;10.37;9.13;;;;;;;8.58;59.58;98209.97;8350398;28;20400;-67
2021/11/07 09:08:24;;;;;;;12.77;10.17;;;;;;;8.55;60.07;98199.75;8350190;28;20342;-68
2021/11/07 09:12:29;;;;;;;10.53;9.40;;;;;;;8.72;59.99;98191.47;8347472;28;20415;-68
2021/11/07 09:16:32;;;;;;;13.33;9.30;;;;;;;8.61;60.94;98175.50;8349653;28;20228;-67
2021/11/07 09:20:41;;;;;;;10.03;9.03;;;;;;;9.07;60.25;98173.09;8349542;28;20238;-68
2021/11/07 09:24:48;;;;;;;9.37;8.43;;;;;;;9.05;60.66;98172.28;8349736;28;20562;-68
2021/11/07 09:28:57;;;;;;;10.73;8.67;;;;;;;9.10;60.95;98176.41;8349480;28;20243;-68
2021/11/07 09:33:08;;;;;;;9.73;8.73;;;;;;;9.03;61.82;98172.34;8334933;28;20233;-68
2021/11/07 09:37:20;;;;;;;10.87;8.37;;;;;;;9.12;61.64;98166.00;8321016;28;20233;-67
2021/11/07 09:41:36;;;;;;;8.90;7.60;;;;;;;9.11;61.63;98178.06;8345473;28;20237;-67
2021/11/07 09:45:58;;;;;;;8.47;7.53;;;;;;;9.04;61.81;98170.59;8310545;28;20546;-67
2021/11/07 09:50:01;;;;;;;8.33;7.10;;;;;;;9.08;61.49;98159.25;8346693;28;20399;-68
2021/11/07 09:54:04;;;;;;;10.13;7.70;;;;;;;9.18;61.36;98150.28;8348156;28;20236;-67
2021/11/07 09:58:07;;;;;;;9.00;7.17;;;;;;;9.22;61.24;98159.63;8347367;28;20239;-68
2021/11/07 10:02:12;;;;;;;9.60;6.40;;;;;;;9.26;61.25;98156.03;8347851;28;20228;-68
2021/11/07 10:06:26;;;;;;;8.17;7.37;;;;;;;9.26;60.58;98150.84;8343875;28;20255;-68
2021/11/07 10:10:33;;;;;;;7.77;6.83;;;;;;;9.25;60.90;98146.56;8339159;28;20240;-68
2021/11/07 10:14:46;;;;;;;8.13;6.33;;;;;;;9.32;60.78;98142.88;8345556;28;20224;-68
2021/11/07 10:18:56;;;;;;;7.03;5.97;;;;;;;9.34;60.37;98135.91;8347380;28;20232;-68
2021/11/07 10:23:05;;;;;;;9.37;6.50;;;;;;;9.35;60.34;98123.84;8345189;28;20395;-67
2021/11/07 10:27:14;;;;;;;7.47;6.40;;;;;;;9.48;60.25;98119.91;8347222;28;20416;-67
2021/11/07 10:31:20;;;;;;;7.37;6.60;;;;;;;9.43;60.23;98123.56;8344801;28;20224;-68
2021/11/07 10:35:54;;;;;;;7.07;5.83;;;;;;;9.27;61.32;98129.28;8347358;28;20397;-68
2021/11/07 10:40:16;;;;;;;7.60;6.10;;;;;;;9.51;61.67;98114.59;8347380;28;20231;-68
2021/11/07 10:53:17;;;;;;;8.27;6.13;;;;;;;9.88;62.10;98105.44;8246998;28;20248;-68
2021/11/07 10:57:23;;;;;;;7.23;6.23;;;;;;;9.94;61.79;98102.63;8293929;28;20239;-68
2021/11/07 11:01:27;;;;;;;6.97;6.27;;;;;;;10.03;62.19;98090.19;8341898;28;20221;-67
2021/11/07 11:05:38;;;;;;;19.27;12.33;;;;;;;10.11;62.29;98082.97;8322250;28;20237;-67
2021/11/07 11:10:12;;;;;;;11.43;9.50;;;;;;;9.94;61.86;98084.50;8318707;28;20231;-68
2021/11/07 11:14:19;;;;;;;19.80;11.27;;;;;;;9.87;62.79;98077.88;8329422;28;20232;-68
2021/11/07 11:22:52;;;;;;;8.47;6.00;;;;;;;10.18;62.11;98064.56;8340149;28;20224;-68
2021/11/07 11:27:07;;;;;;;7.80;4.50;;;;;;;10.05;61.83;98065.97;8346288;28;20543;-68
2021/11/07 11:31:18;;;;;;;7.10;4.57;;;;;;;10.16;61.84;98065.50;8349259;28;20235;-68
2021/11/07 11:35:25;;;;;;;6.43;4.33;;;;;;;10.00;61.89;98065.31;8349989;28;20231;-68
2021/11/07 11:39:37;;;;;;;6.03;4.20;;;;;;;10.42;60.97;98064.47;8349130;28;20295;-67
2021/11/07 11:43:44;;;;;;;5.30;3.93;;;;;;;10.35;60.87;98069.03;8345518;28;20232;-68
2021/11/07 11:48:12;;;;;;;5.27;4.43;;;;;;;10.45;61.09;98064.34;8348264;28;20238;-68
2021/11/07 11:52:32;;;;;;;4.97;3.73;;;;;;;10.46;60.99;98034.13;8344480;28;20231;-68
2021/11/07 11:56:38;;;;;;;6.30;3.67;;;;;;;10.94;59.83;98040.63;8344004;28;20228;-68
2021/11/07 12:00:49;;;;;;;3.90;3.53;;;;;;;11.00;60.11;98045.53;8345697;28;20232;-68
2021/11/07 12:05:04;;;;;;;6.17;3.73;;;;;;;10.95;60.65;98042.34;8346355;28;20291;-68
2021/11/07 12:09:34;;;;;;;5.57;4.00;;;;;;;10.72;61.20;98039.00;8348683;28;20403;-68
2021/11/07 12:13:43;;;;;;;7.20;3.63;;;;;;;10.81;61.28;98042.09;8339061;28;20235;-67
2021/11/07 12:17:47;;;;;;;8.83;5.40;;;;;;;10.80;61.58;98036.06;8347931;28;20240;-68
2021/11/07 12:21:58;;;;;;;7.80;7.00;;;;;;;10.91;61.51;98026.09;8351832;28;20232;-67
2021/11/07 12:26:21;;;;;;;4.37;3.30;;;;;;;10.66;60.67;98023.75;8351754;28;20250;-68
2021/11/07 12:30:28;;;;;;;3.03;2.73;;;;;;;10.66;61.45;98028.91;8351481;28;20241;-67
2021/11/07 12:35:00;;;;;;;4.20;3.43;;;;;;;10.79;61.58;98021.44;8350806;28;20414;-67
2021/11/07 12:43:30;;;;;;;3.90;2.80;;;;;;;10.63;61.04;98017.84;8350980;28;20232;-68
2021/11/07 12:47:48;;;;;;;5.23;3.17;;;;;;;10.53;61.33;98013.06;8349576;28;20578;-68
2021/11/07 12:51:54;;;;;;;4.00;2.93;;;;;;;10.49;62.13;98023.59;8350926;28;20250;-68
2021/11/07 12:55:58;;;;;;;3.20;2.90;;;;;;;10.49;61.93;98026.19;8349818;28;20231;-68
2021/11/07 13:00:06;;;;;;;3.23;2.73;;;;;;;10.43;62.52;98029.06;8332553;28;20237;-68
2021/11/07 13:04:09;;;;;;;3.00;2.70;;;;;;;10.37;62.03;98031.00;8333144;28;20540;-68
2021/11/07 13:08:19;;;;;;;3.67;3.03;;;;;;;10.43;62.82;98031.66;8331875;28;20566;-68
2021/11/07 13:12:25;;;;;;;4.10;3.33;;;;;;;10.42;62.48;98036.00;8325387;28;20224;-68
2021/11/07 13:16:41;;;;;;;3.50;3.20;;;;;;;10.46;62.81;98042.72;8339519;28;20220;-68
2021/11/07 13:21:03;;;;;;;5.43;3.20;;;;;;;10.35;62.98;98025.03;8349354;28;20243;-68
2021/11/07 13:25:20;;;;;;;9.93;2.67;;;;;;;12.10;67.09;98020.53;8335974;28;20423;-64
2021/11/07 13:29:36;;;;;;;3.10;2.73;;;;;;;12.42;61.50;98005.09;8317132;28;20397;-63
2021/11/07 13:33:42;;;;;;;3.43;2.90;;;;;;;11.81;58.44;98003.78;8316003;28;20245;-70
2021/11/07 13:37:51;;;;;;;2.50;2.30;;;;;;;11.00;59.97;98009.25;8316470;28;20252;-64
2021/11/07 13:41:58;;;;;;;2.50;2.30;;;;;;;10.94;60.48;98007.78;8316568;28;20236;-64
2021/11/07 13:46:05;;;;;;;2.47;2.23;;;;;;;11.02;60.60;98004.00;8316850;28;20229;-64
2021/11/07 13:50:09;;;;;;;2.67;2.47;;;;;;;10.88;60.86;97996.88;8346404;28;20231;-64
2021/11/07 13:54:12;;;;;;;2.60;2.13;;;;;;;10.92;60.96;98001.84;8346095;28;20282;-64
2021/11/07 13:58:19;;;;;;;2.67;2.47;;;;;;;10.92;61.08;98006.19;8347148;28;20228;-64
2021/11/07 14:02:24;;;;;;;2.40;2.20;;;;;;;10.88;60.66;98008.06;8344708;28;20224;-64
2021/11/07 14:06:32;;;;;;;2.40;2.20;;;;;;;10.78;61.16;98011.16;8347836;28;20233;-64
2021/11/07 14:10:37;;;;;;;2.30;2.10;;;;;;;10.59;61.90;97998.19;8348298;28;20430;-64
2021/11/07 14:14:42;;;;;;;2.57;2.30;;;;;;;10.49;61.87;97993.41;8347239;28;20232;-65
2021/11/07 14:18:47;;;;;;;2.63;2.43;;;;;;;10.61;61.56;97979.06;8337908;28;20235;-64
2021/11/07 14:22:59;;;;;;;2.70;2.50;;;;;;;10.57;61.17;97990.47;8339317;28;20235;-64
2021/11/07 14:27:06;;;;;;;3.33;2.40;;;;;;;10.53;61.78;97999.28;8343667;28;20239;-63
2021/11/07 14:31:17;;;;;;;3.30;2.50;;;;;;;10.53;61.37;97986.34;8339503;28;20225;-64
2021/11/07 14:35:22;;;;;;;3.63;2.33;;;;;;;10.51;62.18;97985.56;8340355;28;20395;-64
2021/11/07 14:39:42;;;;;;;2.57;2.33;;;;;;;10.34;62.47;97988.88;8347300;28;20227;-63
2021/11/07 14:43:52;;;;;;;2.10;2.00;;;;;;;10.27;62.73;97988.25;8346267;28;20422;-63
2021/11/07 14:57:26;;;;;;;3.30;2.70;;;;;;;10.32;63.02;97978.59;8332476;28;20235;-64
2021/11/07 15:01:34;;;;;;;2.60;2.40;;;;;;;10.29;63.18;97967.50;8346712;28;20231;-65
2021/11/07 15:05:41;;;;;;;2.80;2.50;;;;;;;10.23;63.66;97975.53;8340061;28;20243;-64
2021/11/07 15:09:56;;;;;;;2.90;2.60;;;;;;;10.34;63.28;97974.19;8341626;28;20565;-64
2021/11/07 15:14:21;;;;;;;3.33;2.67;;;;;;;10.31;62.79;97971.72;8340703;28;20235;-63
2021/11/07 15:18:31;;;;;;;2.97;2.77;;;;;;;10.34;63.09;97969.00;8343950;28;20531;-64
2021/11/07 15:22:46;;;;;;;2.90;2.60;;;;;;;10.09;63.91;97955.41;8345493;28;20216;-64
2021/11/07 15:26:53;;;;;;;3.00;2.80;;;;;;;10.25;63.67;97945.25;8350780;28;20234;-64
2021/11/07 15:30:57;;;;;;;3.00;2.63;;;;;;;10.13;63.85;97946.63;8352798;28;20238;-67
2021/11/07 15:34:59;;;;;;;4.10;3.67;;;;;;;10.15;64.15;97947.41;8335705;28;20237;-67
2021/11/07 15:39:09;;;;;;;3.47;2.87;;;;;;;10.16;63.69;97954.22;8336905;28;20547;-67
2021/11/07 15:43:17;;;;;;;2.90;2.70;;;;;;;10.11;63.66;97961.34;8337299;28;20338;-67
2021/11/07 15:47:23;;;;;;;4.63;3.27;;;;;;;10.15;64.21;97958.56;8338306;28;20224;-67
2021/11/07 15:51:30;;;;;;;4.03;3.67;;;;;;;10.20;63.84;97954.94;8349146;28;20541;-67
2021/11/07 15:55:38;;;;;;;4.30;3.90;;;;;;;10.28;63.37;97952.84;8347557;28;20228;-67
2021/11/07 15:59:59;;;;;;;5.03;4.53;;;;;;;10.73;61.97;97962.13;8348709;28;20429;-69
2021/11/07 16:04:07;;;;;;;3.97;3.60;;;;;;;10.27;63.61;97957.19;8332930;28;20233;-68
2021/11/07 16:08:19;;;;;;;4.07;3.57;;;;;;;10.25;64.10;97953.00;8348735;28;20449;-69
2021/11/07 16:12:28;;;;;;;4.67;3.80;;;;;;;10.28;63.77;97960.63;8351895;28;20339;-69
2021/11/07 16:16:41;;;;;;;5.03;4.33;;;;;;;10.24;63.71;97964.25;8348644;28;20395;-68
2021/11/07 16:20:44;;;;;;;4.50;3.57;;;;;;;10.07;64.38;97976.19;8351612;28;20243;-68
2021/11/07 16:24:48;;;;;;;4.20;3.77;;;;;;;10.17;64.49;97980.06;8351657;28;20232;-69
2021/11/07 16:28:53;;;;;;;4.80;4.40;;;;;;;10.20;64.07;97980.81;8351600;28;20238;-68
2021/11/07 16:33:11;;;;;;;4.60;4.20;;;;;;;10.10;64.57;97995.91;8329973;28;20229;-68
2021/11/07 16:37:19;;;;;;;6.90;5.63;;;;;;;10.06;64.55;97997.78;8349412;28;20523;-68
2021/11/07 16:41:26;;;;;;;5.47;4.17;;;;;;;10.21;63.88;98006.66;8351051;28;20413;-68
2021/11/07 16:45:31;;;;;;;5.20;4.50;;;;;;;10.13;64.51;98000.97;8350825;28;20419;-68
2021/11/07 16:49:35;;;;;;;8.33;6.10;;;;;;;10.26;63.91;97998.69;8350913;28;20228;-69
2021/11/07 16:53:42;;;;;;;6.80;6.03;;;;;;;10.32;63.62;97998.47;8349934;28;20407;-68
2021/11/07 16:57:46;;;;;;;4.57;3.87;;;;;;;10.35;63.88;97998.31;8349600;28;20243;-69
2021/11/07 17:01:57;;;;;;;6.80;5.93;;;;;;;10.34;63.83;98002.66;8348532;28;20243;-68
2021/11/07 17:06:15;;;;;;;5.23;4.73;;;;;;;10.28;63.66;98012.38;8345755;28;20232;-68
2021/11/07 17:10:19;;;;;;;6.27;5.17;;;;;;;10.02;64.92;98003.97;8347451;28;20236;-68
2021/11/07 17:14:22;;;;;;;6.20;5.50;;;;;;;10.23;64.12;98015.19;8349169;28;20543;-68
2021/11/07 17:18:29;;;;;;;6.13;5.13;;;;;;;10.19;64.45;98018.81;8349728;28;20236;-68
2021/11/07 17:22:46;;;;;;;8.57;6.70;;;;;;;10.20;64.24;98012.72;8349353;28;20224;-68
2021/11/07 17:26:52;;;;;;;8.47;7.10;;;;;;;10.08;64.69;98027.00;8350020;28;20238;-69
2021/11/07 17:31:00;;;;;;;12.47;9.10;;;;;;;10.25;64.25;98015.13;8349004;28;20290;-68
2021/11/07 17:35:13;;;;;;;8.40;7.50;;;;;;;10.26;63.87;98015.06;8349550;28;20235;-68
2021/11/07 17:39:26;;;;;;;8.63;6.67;;;;;;;10.23;64.23;98020.38;8349300;28;20232;-68
2021/11/07 17:56:40;;;;;;;6.37;5.43;;;;;;;10.13;64.16;98030.25;8348455;28;20230;-68
2021/11/07 18:00:44;;;;;;;6.23;4.60;;;;;;;10.31;64.01;98025.25;8347090;28;20236;-68
2021/11/07 18:04:47;;;;;;;5.73;5.10;;;;;;;10.35;63.21;98019.84;8347307;28;20232;-68
2021/11/07 18:08:55;;;;;;;6.63;5.60;;;;;;;10.37;63.64;98024.97;8348181;28;20515;-68
2021/11/07 18:12:59;;;;;;;7.70;5.60;;;;;;;10.19;63.92;98021.41;8347543;28;20224;-68
2021/11/07 18:17:03;;;;;;;8.03;6.27;;;;;;;10.37;63.43;98030.16;8347561;28;20230;-68
2021/11/07 18:21:06;;;;;;;6.67;5.53;;;;;;;10.36;63.46;98039.69;8348693;28;20232;-68
2021/11/07 18:25:16;;;;;;;5.63;5.00;;;;;;;10.23;63.97;98045.41;8349572;28;20413;-68
2021/11/07 18:29:19;;;;;;;7.77;5.10;;;;;;;10.33;63.14;98041.56;8347798;28;20239;-67
2021/11/07 18:33:22;;;;;;;6.33;4.90;;;;;;;10.28;63.38;98039.13;8348300;28;20231;-68
2021/11/07 18:37:26;;;;;;;6.23;4.40;;;;;;;10.24;63.48;98042.72;8348099;28;20238;-68
2021/11/07 18:41:31;;;;;;;5.03;4.53;;;;;;;10.33;63.37;98047.56;8347244;28;20410;-68
2021/11/07 18:45:33;;;;;;;6.80;5.27;;;;;;;10.41;63.06;98054.16;8347429;28;20579;-68
2021/11/07 18:49:37;;;;;;;6.63;5.03;;;;;;;10.24;63.44;98053.09;8347218;28;20247;-68
2021/11/07 18:53:40;;;;;;;9.00;5.40;;;;;;;10.29;63.54;98040.81;8348417;28;20430;-68
2021/11/07 18:57:45;;;;;;;7.10;4.90;;;;;;;10.20;63.34;98042.94;8347360;28;20240;-68
2021/11/07 19:01:48;;;;;;;5.60;5.00;;;;;;;10.28;63.30;98036.56;8347334;28;20263;-68
2021/11/07 19:05:51;;;;;;;6.13;4.47;;;;;;;10.16;63.49;98042.22;8347129;28;20246;-68
2021/11/07 19:09:53;;;;;;;8.27;4.77;;;;;;;10.14;63.09;98036.28;8347173;28;20232;-68
2021/11/07 19:13:58;;;;;;;10.27;4.80;;;;;;;10.23;62.78;98033.31;8347081;28;20231;-68
2021/11/07 19:18:01;;;;;;;7.30;5.00;;;;;;;10.01;63.81;98033.34;8347171;28;20243;-68
2021/11/07 19:22:05;;;;;;;16.47;4.33;;;;;;;11.79;72.24;98054.91;8347131;28;20243;-66
2021/11/07 19:26:08;;;;;;;9.73;4.03;;;;;;;12.22;62.77;98052.84;8346928;28;20562;-66
2021/11/07 19:30:18;;;;;;;6.60;4.43;;;;;;;11.14;60.47;98055.31;8348226;28;20572;-69
2021/11/07 19:34:23;;;;;;;6.10;4.70;;;;;;;10.81;61.29;98050.69;8353272;28;20247;-68
2021/11/07 19:38:27;;;;;;;7.53;5.40;;;;;;;10.57;61.30;98043.09;8352914;28;20224;-68
2021/11/07 19:42:30;;;;;;;6.87;4.90;;;;;;;10.50;62.20;98040.84;8352336;28;20243;-68
2021/11/07 19:46:35;;;;;;;7.07;4.70;;;;;;;10.44;62.30;98036.75;8352058;28;20561;-69
2021/11/07 19:50:38;;;;;;;7.07;4.70;;;;;;;10.28;63.01;98056.41;8349941;28;20243;-68
2021/11/07 19:55:02;;;;;;;10.67;4.70;;;;;;;10.29;63.08;98056.34;8350152;28;20232;-68
2021/11/07 19:59:07;;;;;;;7.63;4.83;;;;;;;10.39;62.26;98046.47;8351675;28;20235;-69
2021/11/07 20:03:22;;;;;;;7.10;4.10;;;;;;;10.35;62.49;98053.50;8351205;28;20224;-68
2021/11/07 20:07:37;;;;;;;6.43;3.87;;;;;;;10.26;62.24;98051.31;8349812;28;20243;-68
2021/11/07 20:11:45;;;;;;;5.90;4.27;;;;;;;10.28;62.52;98048.63;8349302;28;20310;-67
2021/11/07 20:15:48;;;;;;;7.80;4.87;;;;;;;10.14;63.13;98055.22;8350870;28;20237;-68
2021/11/07 20:19:53;;;;;;;7.60;4.63;;;;;;;10.27;63.03;98060.72;8350886;28;20232;-67
2021/11/07 20:23:55;;;;;;;6.17;4.37;;;;;;;10.33;62.73;98073.44;8348220;28;20234;-68